sensor_id;sensor_type;location;lat;lon;timestamp;pressure;altitude;pressure_sealevel;temperature;humidity
19797;BME280;10058;57.654;12.044;2023-04-23T00:00:47;99931.16;;;12.85;100.00
19797;BME280;10058;57.654;12.044;2023-04-23T00:03:12;99925.84;;;12.79;100.00
19797;BME280;10058;57.654;12.044;2023-04-23T00:05:38;99921.44;;;12.82;100.00
19797;BME280;10058;57.654;12.044;2023-04-23T00:08:06;99920.53;;;12.82;100.00
19797;BME280;10058;57.654;12.044;2023-04-23T00:10:34;99906.44;;;12.89;100.00
19797;BME280;10058;57.654;12.044;2023-04-23T00:12:59;99885.19;;;12.83;100.00
19797;BME280;10058;57.654;12.044;2023-04-23T00:15:24;99888.72;;;12.79;100.00
19797;BME280;10058;57.654;12.044;2023-04-23T00:17:50;99885.19;;;12.80;100.00
19797;BME280;10058;57.654;12.044;2023-04-23T00:20:15;99883.44;;;12.80;100.00
19797;BME280;10058;57.654;12.044;2023-04-23T00:22:41;99876.38;;;12.87;100.00
19797;BME280;10058;57.654;12.044;2023-04-23T00:25:07;99868.41;;;12.79;100.00
19797;BME280;10058;57.654;12.044;2023-04-23T00:27:32;99867.50;;;12.82;100.00
19797;BME280;10058;57.654;12.044;2023-04-23T00:29:57;99863.09;;;12.84;100.00
19797;BME280;10058;57.654;12.044;2023-04-23T00:32:22;99855.16;;;12.85;100.00
19797;BME280;10058;57.654;12.044;2023-04-23T00:34:48;99858.69;;;12.89;100.00
19797;BME280;10058;57.654;12.044;2023-04-23T00:37:13;99835.72;;;12.91;100.00
19797;BME280;10058;57.654;12.044;2023-04-23T00:39:39;99828.66;;;12.93;100.00
19797;BME280;10058;57.654;12.044;2023-04-23T00:42:04;99828.69;;;13.02;100.00
19797;BME280;10058;57.654;12.044;2023-04-23T00:44:31;99828.69;;;12.96;100.00
19797;BME280;10058;57.654;12.044;2023-04-23T00:46:56;99825.16;;;12.97;100.00
19797;BME280;10058;57.654;12.044;2023-04-23T00:49:21;99820.72;;;13.02;100.00
19797;BME280;10058;57.654;12.044;2023-04-23T00:51:47;99815.41;;;12.90;100.00
19797;BME280;10058;57.654;12.044;2023-04-23T00:54:12;99811.00;;;12.98;100.00
19797;BME280;10058;57.654;12.044;2023-04-23T00:56:38;99804.81;;;12.98;100.00
19797;BME280;10058;57.654;12.044;2023-04-23T00:59:03;99809.22;;;12.94;100.00
19797;BME280;10058;57.654;12.044;2023-04-23T01:01:28;99817.19;;;12.96;100.00
19797;BME280;10058;57.654;12.044;2023-04-23T01:03:54;99828.66;;;12.99;100.00
19797;BME280;10058;57.654;12.044;2023-04-23T01:06:20;99828.69;;;13.08;100.00
19797;BME280;10058;57.654;12.044;2023-04-23T01:08:45;99831.34;;;13.07;100.00
19797;BME280;10058;57.654;12.044;2023-04-23T01:11:12;99840.19;;;13.09;100.00
19797;BME280;10058;57.654;12.044;2023-04-23T01:13:38;99850.78;;;13.06;100.00
19797;BME280;10058;57.654;12.044;2023-04-23T01:16:04;99842.84;;;13.07;100.00
19797;BME280;10058;57.654;12.044;2023-04-23T01:18:30;99847.28;;;13.11;100.00
19797;BME280;10058;57.654;12.044;2023-04-23T01:20:55;99852.53;;;13.01;100.00
19797;BME280;10058;57.654;12.044;2023-04-23T01:23:21;99855.13;;;12.78;100.00
19797;BME280;10058;57.654;12.044;2023-04-23T01:25:46;99851.50;;;12.54;100.00
19797;BME280;10058;57.654;12.044;2023-04-23T01:28:11;99852.34;;;12.49;100.00
19797;BME280;10058;57.654;12.044;2023-04-23T01:30:36;99847.88;;;12.37;100.00
19797;BME280;10058;57.654;12.044;2023-04-23T01:33:02;99841.63;;;12.25;100.00
19797;BME280;10058;57.654;12.044;2023-04-23T01:35:28;99826.53;;;12.10;100.00
19797;BME280;10058;57.654;12.044;2023-04-23T01:37:54;99822.94;;;12.05;100.00
19797;BME280;10058;57.654;12.044;2023-04-23T01:40:20;99823.81;;;12.01;100.00
19797;BME280;10058;57.654;12.044;2023-04-23T01:42:49;99815.81;;;11.98;100.00
19797;BME280;10058;57.654;12.044;2023-04-23T01:45:14;99821.13;;;11.98;100.00
19797;BME280;10058;57.654;12.044;2023-04-23T01:47:41;99808.69;;;11.84;100.00
19797;BME280;10058;57.654;12.044;2023-04-23T01:50:07;99810.47;;;11.85;100.00
19797;BME280;10058;57.654;12.044;2023-04-23T01:52:32;99806.97;;;11.90;100.00
19797;BME280;10058;57.654;12.044;2023-04-23T01:54:58;99813.16;;;11.93;100.00
19797;BME280;10058;57.654;12.044;2023-04-23T01:57:23;99814.06;;;12.00;100.00
19797;BME280;10058;57.654;12.044;2023-04-23T01:59:50;99810.53;;;11.95;100.00
19797;BME280;10058;57.654;12.044;2023-04-23T02:02:15;99810.47;;;11.85;100.00
19797;BME280;10058;57.654;12.044;2023-04-23T02:04:42;99815.63;;;11.73;100.00
19797;BME280;10058;57.654;12.044;2023-04-23T02:07:08;99807.69;;;11.73;100.00
19797;BME280;10058;57.654;12.044;2023-04-23T02:09:33;99805.09;;;11.79;100.00
19797;BME280;10058;57.654;12.044;2023-04-23T02:11:58;99815.63;;;11.73;100.00
19797;BME280;10058;57.654;12.044;2023-04-23T02:14:23;99795.34;;;11.74;100.00
19797;BME280;10058;57.654;12.044;2023-04-23T02:16:48;99801.56;;;11.76;100.00
19797;BME280;10058;57.654;12.044;2023-04-23T02:19:15;99799.81;;;11.76;100.00
19797;BME280;10058;57.654;12.044;2023-04-23T02:21:40;99795.38;;;11.75;100.00
19797;BME280;10058;57.654;12.044;2023-04-23T02:24:05;99791.81;;;11.72;100.00
19797;BME280;10058;57.654;12.044;2023-04-23T02:26:31;99792.69;;;11.72;100.00
19797;BME280;10058;57.654;12.044;2023-04-23T02:28:56;99801.50;;;11.71;100.00
19797;BME280;10058;57.654;12.044;2023-04-23T02:31:21;99791.78;;;11.69;100.00
19797;BME280;10058;57.654;12.044;2023-04-23T02:33:47;99780.31;;;11.68;100.00
19797;BME280;10058;57.654;12.044;2023-04-23T02:36:12;99773.19;;;11.61;100.00
19797;BME280;10058;57.654;12.044;2023-04-23T02:38:37;99762.56;;;11.55;100.00
19797;BME280;10058;57.654;12.044;2023-04-23T02:41:06;99770.53;;;11.60;100.00
19797;BME280;10058;57.654;12.044;2023-04-23T02:43:31;99760.88;;;11.66;100.00
19797;BME280;10058;57.654;12.044;2023-04-23T02:45:56;99760.88;;;11.66;100.00
19797;BME280;10058;57.654;12.044;2023-04-23T02:48:21;99759.09;;;11.65;100.00
19797;BME280;10058;57.654;12.044;2023-04-23T02:50:46;99750.28;;;11.65;100.00
19797;BME280;10058;57.654;12.044;2023-04-23T02:53:12;99746.78;;;11.70;100.00
19797;BME280;10058;57.654;12.044;2023-04-23T02:55:37;99745.00;;;11.69;100.00
19797;BME280;10058;57.654;12.044;2023-04-23T02:58:02;99740.59;;;11.70;100.00
19797;BME280;10058;57.654;12.044;2023-04-23T03:00:27;99736.22;;;11.73;100.00
19797;BME280;10058;57.654;12.044;2023-04-23T03:02:52;99730.88;;;11.67;100.00
19797;BME280;10058;57.654;12.044;2023-04-23T03:05:18;99723.75;;;11.60;100.00
19797;BME280;10058;57.654;12.044;2023-04-23T03:07:43;99720.25;;;11.58;100.00
19797;BME280;10058;57.654;12.044;2023-04-23T03:10:08;99720.22;;;11.55;100.00
19797;BME280;10058;57.654;12.044;2023-04-23T03:12:33;99706.94;;;11.47;100.00
19797;BME280;10058;57.654;12.044;2023-04-23T03:14:59;99700.78;;;11.50;100.00
19797;BME280;10058;57.654;12.044;2023-04-23T03:17:24;99699.88;;;11.48;100.00
19797;BME280;10058;57.654;12.044;2023-04-23T03:19:49;99702.50;;;11.45;100.00
19797;BME280;10058;57.654;12.044;2023-04-23T03:22:14;99698.94;;;11.37;100.00
19797;BME280;10058;57.654;12.044;2023-04-23T03:24:39;99709.53;;;11.40;100.00
19797;BME280;10058;57.654;12.044;2023-04-23T03:27:05;99693.66;;;11.43;100.00
19797;BME280;10058;57.654;12.044;2023-04-23T03:29:30;99689.25;;;11.45;100.00
19797;BME280;10058;57.654;12.044;2023-04-23T03:31:55;99684.88;;;11.47;100.00
19797;BME280;10058;57.654;12.044;2023-04-23T03:34:20;99681.34;;;11.48;100.00
19797;BME280;10058;57.654;12.044;2023-04-23T03:36:45;99671.66;;;11.47;100.00
19797;BME280;10058;57.654;12.044;2023-04-23T03:39:12;99681.31;;;11.45;100.00
19797;BME280;10058;57.654;12.044;2023-04-23T03:41:37;99669.91;;;11.50;100.00
19797;BME280;10058;57.654;12.044;2023-04-23T03:44:03;99672.56;;;11.50;100.00
19797;BME280;10058;57.654;12.044;2023-04-23T03:46:28;99660.22;;;11.54;100.00
19797;BME280;10058;57.654;12.044;2023-04-23T03:48:53;99664.63;;;11.50;100.00
19797;BME280;10058;57.654;12.044;2023-04-23T03:51:18;99667.22;;;11.44;100.00
19797;BME280;10058;57.654;12.044;2023-04-23T03:53:44;99667.22;;;11.46;100.00
19797;BME280;10058;57.654;12.044;2023-04-23T03:56:12;99649.56;;;11.45;100.00
19797;BME280;10058;57.654;12.044;2023-04-23T03:58:37;99653.13;;;11.47;100.00
19797;BME280;10058;57.654;12.044;2023-04-23T04:01:02;99648.69;;;11.46;100.00
19797;BME280;10058;57.654;12.044;2023-04-23T04:03:28;99639.03;;;11.48;100.00
19797;BME280;10058;57.654;12.044;2023-04-23T04:05:53;99637.22;;;11.44;100.00
19797;BME280;10058;57.654;12.044;2023-04-23T04:08:18;99642.56;;;11.48;100.00
19797;BME280;10058;57.654;12.044;2023-04-23T04:10:43;99653.13;;;11.47;100.00
19797;BME280;10058;57.654;12.044;2023-04-23T04:13:09;99649.59;;;11.48;100.00
19797;BME280;10058;57.654;12.044;2023-04-23T04:15:34;99642.56;;;11.50;100.00
19797;BME280;10058;57.654;12.044;2023-04-23T04:17:59;99626.66;;;11.47;100.00
19797;BME280;10058;57.654;12.044;2023-04-23T04:20:25;99624.97;;;11.58;100.00
19797;BME280;10058;57.654;12.044;2023-04-23T04:22:53;99621.44;;;11.62;100.00
19797;BME280;10058;57.654;12.044;2023-04-23T04:25:18;99639.97;;;11.64;100.00
19797;BME280;10058;57.654;12.044;2023-04-23T04:27:43;99640.88;;;11.64;100.00
19797;BME280;10058;57.654;12.044;2023-04-23T04:30:09;99636.50;;;11.69;100.00
19797;BME280;10058;57.654;12.044;2023-04-23T04:32:35;99649.72;;;11.69;100.00
19797;BME280;10058;57.654;12.044;2023-04-23T04:35:03;99642.75;;;11.77;100.00
19797;BME280;10058;57.654;12.044;2023-04-23T04:37:29;99652.50;;;11.88;100.00
19797;BME280;10058;57.654;12.044;2023-04-23T04:39:54;99642.75;;;11.83;100.00
19797;BME280;10058;57.654;12.044;2023-04-23T04:42:19;99641.00;;;11.85;100.00
19797;BME280;10058;57.654;12.044;2023-04-23T04:44:45;99638.41;;;11.95;100.00
19797;BME280;10058;57.654;12.044;2023-04-23T04:47:10;99641.06;;;11.98;100.00
19797;BME280;10058;57.654;12.044;2023-04-23T04:49:37;99637.56;;;12.05;100.00
19797;BME280;10058;57.654;12.044;2023-04-23T04:52:02;99618.16;;;12.06;100.00
19797;BME280;10058;57.654;12.044;2023-04-23T04:54:27;99623.47;;;12.09;100.00
19797;BME280;10058;57.654;12.044;2023-04-23T04:56:52;99638.44;;;12.05;100.00
19797;BME280;10058;57.654;12.044;2023-04-23T04:59:18;99630.50;;;12.04;100.00
19797;BME280;10058;57.654;12.044;2023-04-23T05:01:43;99633.09;;;11.98;100.00
19797;BME280;10058;57.654;12.044;2023-04-23T05:04:08;99618.13;;;11.94;100.00
19797;BME280;10058;57.654;12.044;2023-04-23T05:06:33;99635.72;;;11.89;100.00
19797;BME280;10058;57.654;12.044;2023-04-23T05:08:58;99637.53;;;11.94;100.00
19797;BME280;10058;57.654;12.044;2023-04-23T05:11:24;99635.72;;;11.89;100.00
19797;BME280;10058;57.654;12.044;2023-04-23T05:13:49;99635.72;;;11.85;100.00
19797;BME280;10058;57.654;12.044;2023-04-23T05:16:15;99635.63;;;11.70;100.00
19797;BME280;10058;57.654;12.044;2023-04-23T05:18:40;99638.19;;;11.61;100.00
19797;BME280;10058;57.654;12.044;2023-04-23T05:21:06;99634.72;;;11.68;100.00
19797;BME280;10058;57.654;12.044;2023-04-23T05:23:32;99642.50;;;11.44;100.00
19797;BME280;10058;57.654;12.044;2023-04-23T05:25:57;99642.53;;;11.47;100.00
19797;BME280;10058;57.654;12.044;2023-04-23T05:28:23;99637.22;;;11.41;100.00
19797;BME280;10058;57.654;12.044;2023-04-23T05:30:48;99639.88;;;11.41;100.00
19797;BME280;10058;57.654;12.044;2023-04-23T05:33:13;99640.72;;;11.37;100.00
19797;BME280;10058;57.654;12.044;2023-04-23T05:35:39;99638.88;;;11.24;100.00
19797;BME280;10058;57.654;12.044;2023-04-23T05:38:04;99642.41;;;11.26;100.00
19797;BME280;10058;57.654;12.044;2023-04-23T05:40:30;99644.94;;;11.09;100.00
19797;BME280;10058;57.654;12.044;2023-04-23T05:42:56;99625.56;;;11.11;100.00
19797;BME280;10058;57.654;12.044;2023-04-23T05:45:21;99627.22;;;10.96;100.00
19797;BME280;10058;57.654;12.044;2023-04-23T05:47:47;99624.53;;;10.94;100.00
19797;BME280;10058;57.654;12.044;2023-04-23T05:50:12;99613.97;;;10.94;100.00
19797;BME280;10058;57.654;12.044;2023-04-23T05:52:37;99612.22;;;10.96;100.00
19797;BME280;10058;57.654;12.044;2023-04-23T05:55:03;99618.28;;;10.80;100.00
19797;BME280;10058;57.654;12.044;2023-04-23T05:57:28;99622.63;;;10.72;100.00
19797;BME280;10058;57.654;12.044;2023-04-23T05:59:53;99599.69;;;10.68;100.00
19797;BME280;10058;57.654;12.044;2023-04-23T06:02:19;99603.25;;;10.76;100.00
19797;BME280;10058;57.654;12.044;2023-04-23T06:04:44;99610.22;;;10.65;100.00
19797;BME280;10058;57.654;12.044;2023-04-23T06:07:09;99615.41;;;10.53;100.00
19797;BME280;10058;57.654;12.044;2023-04-23T06:09:35;99631.28;;;10.56;100.00
19797;BME280;10058;57.654;12.044;2023-04-23T06:12:01;99623.34;;;10.53;100.00
19797;BME280;10058;57.654;12.044;2023-04-23T06:14:27;99608.44;;;10.62;100.00
19797;BME280;10058;57.654;12.044;2023-04-23T06:16:52;99606.81;;;10.78;100.00
19797;BME280;10058;57.654;12.044;2023-04-23T06:19:17;99620.00;;;10.72;100.00
19797;BME280;10058;57.654;12.044;2023-04-23T06:21:42;99622.47;;;10.57;100.00
19797;BME280;10058;57.654;12.044;2023-04-23T06:24:07;99622.50;;;10.60;100.00
19797;BME280;10058;57.654;12.044;2023-04-23T06:26:33;99606.72;;;10.66;100.00
19797;BME280;10058;57.654;12.044;2023-04-23T06:28:58;99625.28;;;10.73;100.00
19797;BME280;10058;57.654;12.044;2023-04-23T06:31:24;99629.56;;;10.61;100.00
19797;BME280;10058;57.654;12.044;2023-04-23T06:33:49;99634.78;;;10.52;100.00
19797;BME280;10058;57.654;12.044;2023-04-23T06:36:14;99629.56;;;10.62;100.00
19797;BME280;10058;57.654;12.044;2023-04-23T06:38:39;99642.81;;;10.65;100.00
19797;BME280;10058;57.654;12.044;2023-04-23T06:41:05;99629.53;;;10.58;100.00
19797;BME280;10058;57.654;12.044;2023-04-23T06:43:30;99642.78;;;10.64;100.00
19797;BME280;10058;57.654;12.044;2023-04-23T06:45:55;99640.97;;;10.54;100.00
19797;BME280;10058;57.654;12.044;2023-04-23T06:48:21;99642.84;;;10.67;100.00
19797;BME280;10058;57.654;12.044;2023-04-23T06:50:46;99631.44;;;10.74;100.00
19797;BME280;10058;57.654;12.044;2023-04-23T06:53:12;99652.50;;;10.65;100.00
19797;BME280;10058;57.654;12.044;2023-04-23T06:55:37;99654.38;;;10.78;100.00
19797;BME280;10058;57.654;12.044;2023-04-23T06:58:02;99647.22;;;10.65;100.00
19797;BME280;10058;57.654;12.044;2023-04-23T07:00:28;99659.56;;;10.66;100.00
19797;BME280;10058;57.654;12.044;2023-04-23T07:02:53;99675.47;;;10.72;100.00
19797;BME280;10058;57.654;12.044;2023-04-23T07:05:18;99682.56;;;10.79;100.00
19797;BME280;10058;57.654;12.044;2023-04-23T07:07:44;99698.53;;;10.88;100.00
19797;BME280;10058;57.654;12.044;2023-04-23T07:10:09;99688.69;;;10.70;100.00
19797;BME280;10058;57.654;12.044;2023-04-23T07:12:36;99707.09;;;10.63;100.00
19797;BME280;10058;57.654;12.044;2023-04-23T07:15:02;99704.56;;;10.75;100.00
19797;BME280;10058;57.654;12.044;2023-04-23T07:17:27;99768.16;;;10.90;100.00
19797;BME280;10058;57.654;12.044;2023-04-23T07:19:52;99761.25;;;11.03;100.00
19797;BME280;10058;57.654;12.044;2023-04-23T07:22:18;99763.84;;;10.98;100.00
19797;BME280;10058;57.654;12.044;2023-04-23T07:24:43;99754.97;;;10.93;100.00
19797;BME280;10058;57.654;12.044;2023-04-23T07:27:08;99751.50;;;11.00;100.00
19797;BME280;10058;57.654;12.044;2023-04-23T07:29:33;99753.31;;;11.04;100.00
19797;BME280;10058;57.654;12.044;2023-04-23T07:31:58;99758.75;;;11.20;100.00
19797;BME280;10058;57.654;12.044;2023-04-23T07:34:24;99757.00;;;11.22;100.00
19797;BME280;10058;57.654;12.044;2023-04-23T07:36:49;99755.25;;;11.24;100.00
19797;BME280;10058;57.654;12.044;2023-04-23T07:39:16;99762.31;;;11.28;100.00
19797;BME280;10058;57.654;12.044;2023-04-23T07:41:41;99760.56;;;11.24;100.00
19797;BME280;10058;57.654;12.044;2023-04-23T07:44:06;99774.66;;;11.23;100.00
19797;BME280;10058;57.654;12.044;2023-04-23T07:46:31;99773.78;;;11.27;100.00
19797;BME280;10058;57.654;12.044;2023-04-23T07:48:56;99777.34;;;11.30;100.00
19797;BME280;10058;57.654;12.044;2023-04-23T07:51:22;99781.72;;;11.27;100.00
19797;BME280;10058;57.654;12.044;2023-04-23T07:53:50;99782.56;;;11.21;100.00
19797;BME280;10058;57.654;12.044;2023-04-23T07:56:18;99788.88;;;11.37;100.00
19797;BME280;10058;57.654;12.044;2023-04-23T07:58:43;99789.78;;;11.40;100.00
19797;BME280;10058;57.654;12.044;2023-04-23T08:01:08;99786.31;;;11.49;100.00
19797;BME280;10058;57.654;12.044;2023-04-23T08:03:34;99772.28;;;11.61;100.00
19797;BME280;10058;57.654;12.044;2023-04-23T08:05:59;99773.19;;;11.58;100.00
19797;BME280;10058;57.654;12.044;2023-04-23T08:08:24;99774.91;;;11.53;100.00
19797;BME280;10058;57.654;12.044;2023-04-23T08:10:49;99776.72;;;11.63;100.00
19797;BME280;10058;57.654;12.044;2023-04-23T08:13:14;99776.69;;;11.60;100.00
19797;BME280;10058;57.654;12.044;2023-04-23T08:15:40;99778.63;;;11.79;100.00
19797;BME280;10058;57.654;12.044;2023-04-23T08:18:05;99782.19;;;11.81;100.00
19797;BME280;10058;57.654;12.044;2023-04-23T08:20:30;99785.75;;;11.87;100.00
19797;BME280;10058;57.654;12.044;2023-04-23T08:22:56;99790.19;;;11.91;100.00
19797;BME280;10058;57.654;12.044;2023-04-23T08:25:21;99787.66;;;12.09;100.00
19797;BME280;10058;57.654;12.044;2023-04-23T08:27:46;99786.81;;;12.16;100.00
19797;BME280;10058;57.654;12.044;2023-04-23T08:30:12;99780.72;;;12.35;100.00
19797;BME280;10058;57.654;12.044;2023-04-23T08:32:40;99783.41;;;12.49;100.00
19797;BME280;10058;57.654;12.044;2023-04-23T08:35:05;99770.13;;;12.38;100.00
19797;BME280;10058;57.654;12.044;2023-04-23T08:37:32;99776.34;;;12.42;100.00
19797;BME280;10058;57.654;12.044;2023-04-23T08:39:57;99768.34;;;12.34;100.00
19797;BME280;10058;57.654;12.044;2023-04-23T08:42:23;99769.19;;;12.24;100.00
19797;BME280;10058;57.654;12.044;2023-04-23T08:44:49;99774.50;;;12.23;100.00
19797;BME280;10058;57.654;12.044;2023-04-23T08:47:16;99771.84;;;12.30;100.00
19797;BME280;10058;57.654;12.044;2023-04-23T08:49:42;99772.75;;;12.34;100.00
19797;BME280;10058;57.654;12.044;2023-04-23T08:52:13;99776.22;;;12.19;100.00
19797;BME280;10058;57.654;12.044;2023-04-23T08:54:40;99773.50;;;12.04;100.00
19797;BME280;10058;57.654;12.044;2023-04-23T08:57:05;99782.31;;;12.00;100.00
19797;BME280;10058;57.654;12.044;2023-04-23T08:59:31;99779.63;;;11.98;100.00
19797;BME280;10058;57.654;12.044;2023-04-23T09:01:57;99777.00;;;12.00;100.00
19797;BME280;10058;57.654;12.044;2023-04-23T09:04:25;99772.63;;;12.03;100.00
19797;BME280;10058;57.654;12.044;2023-04-23T09:06:51;99764.72;;;12.15;100.00
19797;BME280;10058;57.654;12.044;2023-04-23T09:09:16;99760.19;;;11.90;100.00
19797;BME280;10058;57.654;12.044;2023-04-23T09:11:47;99763.91;;;12.26;100.00
19797;BME280;10058;57.654;12.044;2023-04-23T09:14:12;99757.66;;;12.16;100.00
19797;BME280;10058;57.654;12.044;2023-04-23T09:16:38;99748.81;;;12.14;100.00
19797;BME280;10058;57.654;12.044;2023-04-23T09:19:07;99720.50;;;12.01;100.00
19797;BME280;10058;57.654;12.044;2023-04-23T09:21:33;99721.38;;;11.94;100.00
19797;BME280;10058;57.654;12.044;2023-04-23T09:24:02;99726.72;;;12.04;100.00
19797;BME280;10058;57.654;12.044;2023-04-23T09:26:28;99722.31;;;12.05;100.00
19797;BME280;10058;57.654;12.044;2023-04-23T09:28:53;99720.59;;;12.16;100.00
19797;BME280;10058;57.654;12.044;2023-04-23T09:31:19;99727.59;;;12.05;100.00
19797;BME280;10058;57.654;12.044;2023-04-23T09:33:49;99731.16;;;12.13;100.00
19797;BME280;10058;57.654;12.044;2023-04-23T09:36:14;99715.34;;;12.25;100.00
19797;BME280;10058;57.654;12.044;2023-04-23T09:38:42;99706.63;;;12.60;100.00
19797;BME280;10058;57.654;12.044;2023-04-23T09:41:23;99704.00;;;12.93;100.00
19797;BME280;10058;57.654;12.044;2023-04-23T09:43:51;99694.28;;;13.10;100.00
19797;BME280;10058;57.654;12.044;2023-04-23T09:46:16;99689.03;;;13.29;100.00
19797;BME280;10058;57.654;12.044;2023-04-23T09:48:41;99700.47;;;12.93;100.00
19797;BME280;10058;57.654;12.044;2023-04-23T09:51:07;99697.81;;;12.88;100.00
19797;BME280;10058;57.654;12.044;2023-04-23T09:53:39;99691.66;;;13.10;100.00
19797;BME280;10058;57.654;12.044;2023-04-23T09:56:05;99689.00;;;13.22;100.00
19797;BME280;10058;57.654;12.044;2023-04-23T09:58:31;99704.88;;;12.80;100.00
19797;BME280;10058;57.654;12.044;2023-04-23T10:01:04;99704.00;;;12.85;100.00
19797;BME280;10058;57.654;12.044;2023-04-23T10:03:29;99689.88;;;13.03;100.00
19797;BME280;10058;57.654;12.044;2023-04-23T10:05:55;99697.00;;;13.33;100.00
19797;BME280;10058;57.654;12.044;2023-04-23T10:08:20;99688.13;;;13.39;100.00
19797;BME280;10058;57.654;12.044;2023-04-23T10:10:46;99695.22;;;13.26;100.00
19797;BME280;10058;57.654;12.044;2023-04-23T10:13:11;99691.63;;;13.07;100.00
19797;BME280;10058;57.654;12.044;2023-04-23T10:15:37;99687.22;;;12.79;100.00
19797;BME280;10058;57.654;12.044;2023-04-23T10:18:03;99696.88;;;12.65;100.00
19797;BME280;10058;57.654;12.044;2023-04-23T10:20:29;99697.72;;;12.48;100.00
19797;BME280;10058;57.654;12.044;2023-04-23T10:22:54;99693.31;;;12.49;100.00
19797;BME280;10058;57.654;12.044;2023-04-23T10:25:21;99704.75;;;12.28;100.00
19797;BME280;10058;57.654;12.044;2023-04-23T10:27:48;99695.91;;;12.23;100.00
19797;BME280;10058;57.654;12.044;2023-04-23T10:30:13;99701.13;;;12.12;100.00
19797;BME280;10058;57.654;12.044;2023-04-23T10:32:38;99696.72;;;12.13;100.00
19797;BME280;10058;57.654;12.044;2023-04-23T10:35:04;99700.28;;;12.12;100.00
19797;BME280;10058;57.654;12.044;2023-04-23T10:37:30;99706.47;;;12.17;100.00
19797;BME280;10058;57.654;12.044;2023-04-23T10:39:58;99704.81;;;12.46;100.00
19797;BME280;10058;57.654;12.044;2023-04-23T10:42:25;99707.41;;;12.37;100.00
19797;BME280;10058;57.654;12.044;2023-04-23T10:44:53;99703.91;;;12.40;100.00
19797;BME280;10058;57.654;12.044;2023-04-23T10:47:19;99702.16;;;12.43;100.00
19797;BME280;10058;57.654;12.044;2023-04-23T10:49:47;99703.03;;;12.51;100.00
19797;BME280;10058;57.654;12.044;2023-04-23T10:52:13;99693.41;;;13.02;100.00
19797;BME280;10058;57.654;12.044;2023-04-23T10:54:39;99690.75;;;13.05;100.00
19797;BME280;10058;57.654;12.044;2023-04-23T10:57:06;99689.00;;;13.16;100.00
19797;BME280;10058;57.654;12.044;2023-04-23T10:59:50;99691.66;;;12.98;100.00
19797;BME280;10058;57.654;12.044;2023-04-23T11:02:15;99694.28;;;12.80;100.00
19797;BME280;10058;57.654;12.044;2023-04-23T11:04:43;99685.38;;;12.49;100.00
19797;BME280;10058;57.654;12.044;2023-04-23T11:07:10;99693.28;;;12.34;100.00
19797;BME280;10058;57.654;12.044;2023-04-23T11:09:48;99698.56;;;12.32;100.00
19797;BME280;10058;57.654;12.044;2023-04-23T11:15:08;99697.69;;;12.33;100.00
19797;BME280;10058;57.654;12.044;2023-04-23T11:22:47;99707.22;;;11.90;100.00
19797;BME280;10058;57.654;12.044;2023-04-23T11:25:13;99714.31;;;11.97;100.00
19797;BME280;10058;57.654;12.044;2023-04-23T11:27:39;99709.03;;;11.99;100.00
19797;BME280;10058;57.654;12.044;2023-04-23T11:30:08;99700.25;;;12.09;100.00
19797;BME280;10058;57.654;12.044;2023-04-23T11:32:35;99706.38;;;11.99;100.00
19797;BME280;10058;57.654;12.044;2023-04-23T11:35:00;99708.06;;;11.81;100.00
19797;BME280;10058;57.654;12.044;2023-04-23T11:37:29;99712.56;;;11.98;100.00
19797;BME280;10058;57.654;12.044;2023-04-23T11:39:54;99720.50;;;11.95;100.00
19797;BME280;10058;57.654;12.044;2023-04-23T11:42:20;99708.16;;;12.03;100.00
19797;BME280;10058;57.654;12.044;2023-04-23T11:44:45;99710.16;;;12.74;100.00
19797;BME280;10058;57.654;12.044;2023-04-23T11:47:12;99710.19;;;13.01;100.00
19797;BME280;10058;57.654;12.044;2023-04-23T11:49:38;99703.06;;;12.54;100.00
19797;BME280;10058;57.654;12.044;2023-04-23T11:52:03;99715.38;;;12.37;100.00
19797;BME280;10058;57.654;12.044;2023-04-23T11:54:29;99715.31;;;12.22;100.00
19797;BME280;10058;57.654;12.044;2023-04-23T11:56:54;99724.13;;;12.12;100.00
19797;BME280;10058;57.654;12.044;2023-04-23T11:59:20;99727.59;;;12.03;100.00
19797;BME280;10058;57.654;12.044;2023-04-23T12:01:47;99725.00;;;12.15;100.00
19797;BME280;10058;57.654;12.044;2023-04-23T12:04:17;99731.28;;;12.40;100.00
19797;BME280;10058;57.654;12.044;2023-04-23T12:06:43;99726.81;;;12.30;100.00
19797;BME280;10058;57.654;12.044;2023-04-23T12:09:09;99731.19;;;12.16;100.00
19797;BME280;10058;57.654;12.044;2023-04-23T12:11:35;99733.78;;;12.05;100.00
19797;BME280;10058;57.654;12.044;2023-04-23T12:14:01;99729.41;;;12.09;100.00
19797;BME280;10058;57.654;12.044;2023-04-23T12:17:07;99736.50;;;12.22;100.00
19797;BME280;10058;57.654;12.044;2023-04-23T12:19:18;99731.25;;;12.34;100.00
19797;BME280;10058;57.654;12.044;2023-04-23T12:21:51;99735.72;;;12.44;100.00
19797;BME280;10058;57.654;12.044;2023-04-23T12:24:20;99739.31;;;12.59;100.00
19797;BME280;10058;57.654;12.044;2023-04-23T12:26:48;99738.44;;;12.69;100.00
19797;BME280;10058;57.654;12.044;2023-04-23T12:29:13;99727.84;;;12.82;100.00
19797;BME280;10058;57.654;12.044;2023-04-23T12:31:38;99731.38;;;12.83;100.00
19797;BME280;10058;57.654;12.044;2023-04-23T12:36:29;99733.94;;;12.40;100.00
19797;BME280;10058;57.654;12.044;2023-04-23T12:39:17;99738.34;;;12.47;100.00
19797;BME280;10058;57.654;12.044;2023-04-23T12:41:40;99740.16;;;12.45;100.00
19797;BME280;10058;57.654;12.044;2023-04-23T12:44:05;99748.09;;;12.53;100.00